createdAt,value
2023-03-07T00:01:31.851Z,10.10
2023-03-07T00:04:02.386Z,10.30
2023-03-07T00:06:33.211Z,11.20
2023-03-07T00:09:04.884Z,11.90
2023-03-07T00:11:33.961Z,11.00
2023-03-07T00:14:08.862Z,12.10
2023-03-07T00:16:38.802Z,14.50
2023-03-07T00:19:09.466Z,11.20
2023-03-07T00:21:38.602Z,11.50
2023-03-07T00:24:08.122Z,10.80
2023-03-07T00:26:40.320Z,11.60
2023-03-07T00:29:11.085Z,9.10
2023-03-07T00:31:40.344Z,8.60
2023-03-07T00:34:09.600Z,10.10
2023-03-07T00:36:39.518Z,10.40
2023-03-07T00:39:09.028Z,9.10
2023-03-07T00:41:41.771Z,13.10
2023-03-07T00:44:10.942Z,12.30
2023-03-07T00:46:40.385Z,11.60
2023-03-07T00:49:12.334Z,9.70
2023-03-07T00:51:41.515Z,9.80
2023-03-07T00:54:10.673Z,9.60
2023-03-07T00:56:40.875Z,10.80
2023-03-07T00:59:11.916Z,8.80
2023-03-07T01:01:42.887Z,9.40
2023-03-07T01:04:12.255Z,7.60
2023-03-07T01:06:43.255Z,8.80
2023-03-07T01:09:13.347Z,8.40
2023-03-07T01:11:42.766Z,9.40
2023-03-07T01:14:12.005Z,10.00
2023-03-07T01:16:41.377Z,8.20
2023-03-07T01:19:12.969Z,9.40
2023-03-07T01:21:44.262Z,9.90
2023-03-07T01:24:16.368Z,8.80
2023-03-07T01:26:46.073Z,11.70
2023-03-07T01:29:15.847Z,9.90
2023-03-07T01:31:44.863Z,9.40
2023-03-07T01:34:15.386Z,7.50
2023-03-07T01:36:45.035Z,10.60
2023-03-07T01:39:17.435Z,8.50
2023-03-07T01:41:52.310Z,10.20
2023-03-07T01:44:27.346Z,9.20
2023-03-07T01:47:00.409Z,9.90
2023-03-07T01:49:47.990Z,9.80
2023-03-07T01:52:43.627Z,7.60
2023-03-07T01:55:35.030Z,8.20
2023-03-07T01:58:15.992Z,8.20
2023-03-07T02:00:45.565Z,8.40
2023-03-07T02:03:35.992Z,9.20
2023-03-07T02:06:10.308Z,8.60
2023-03-07T02:08:40.739Z,11.10
2023-03-07T02:11:12.190Z,11.10
2023-03-07T02:13:42.000Z,15.40
2023-03-07T02:16:11.998Z,13.00
2023-03-07T02:18:49.464Z,12.60
2023-03-07T02:21:31.747Z,11.40
2023-03-07T02:24:49.130Z,11.80
2023-03-07T02:27:18.641Z,10.40
2023-03-07T02:29:48.545Z,16.40
2023-03-07T02:32:20.016Z,18.90
2023-03-07T02:34:51.282Z,29.10
2023-03-07T02:37:29.371Z,14.20
2023-03-07T02:40:01.904Z,10.50
2023-03-07T02:42:34.401Z,11.40
2023-03-07T02:45:12.008Z,11.00
2023-03-07T02:47:45.839Z,10.40
2023-03-07T02:50:20.435Z,15.50
2023-03-07T02:52:53.290Z,16.00
2023-03-07T02:55:23.790Z,16.80
2023-03-07T02:58:00.425Z,20.70
2023-03-07T03:00:31.506Z,17.00
2023-03-07T03:03:01.065Z,14.40
2023-03-07T03:05:30.722Z,17.90
2023-03-07T03:08:01.228Z,15.70
2023-03-07T03:10:32.457Z,14.40
2023-03-07T03:13:03.449Z,15.10
2023-03-07T03:15:33.070Z,16.70
2023-03-07T03:18:03.614Z,16.00
2023-03-07T03:20:33.365Z,15.80
2023-03-07T03:23:05.208Z,23.00
2023-03-07T03:25:34.512Z,16.90
2023-03-07T03:28:30.507Z,16.40
2023-03-07T03:31:23.079Z,14.20
2023-03-07T03:33:53.256Z,15.30
2023-03-07T03:36:26.205Z,15.30
2023-03-07T03:38:59.065Z,17.20
2023-03-07T03:41:28.357Z,19.00
2023-03-07T03:43:58.314Z,16.80
2023-03-07T03:46:30.914Z,19.00
2023-03-07T03:49:04.846Z,17.00
2023-03-07T03:51:34.627Z,18.90
2023-03-07T03:54:04.207Z,18.30
2023-03-07T03:56:43.754Z,17.40
2023-03-07T03:59:20.128Z,23.20
2023-03-07T04:01:50.089Z,20.00
2023-03-07T04:04:25.714Z,20.40
2023-03-07T04:06:55.395Z,17.30
2023-03-07T04:09:28.336Z,22.20
2023-03-07T04:11:57.955Z,24.30
2023-03-07T04:14:27.967Z,22.90
2023-03-07T04:16:57.454Z,20.30
2023-03-07T04:19:29.549Z,19.80
2023-03-07T04:22:00.533Z,19.00
2023-03-07T04:24:30.639Z,18.90
2023-03-07T04:27:00.890Z,18.10
2023-03-07T04:29:31.384Z,20.30
2023-03-07T04:32:14.188Z,21.50
2023-03-07T04:34:43.966Z,21.10
2023-03-07T04:37:13.275Z,21.80
2023-03-07T04:39:42.635Z,25.50
2023-03-07T04:42:22.996Z,18.50
2023-03-07T04:44:52.284Z,19.10
2023-03-07T04:47:24.756Z,18.30
2023-03-07T04:52:28.253Z,20.80
2023-03-07T04:54:57.735Z,15.00
2023-03-07T04:57:28.863Z,18.80
2023-03-07T04:59:58.544Z,17.20
2023-03-07T05:02:29.085Z,16.50
2023-03-07T05:05:04.086Z,16.60
2023-03-07T05:07:35.325Z,17.60
2023-03-07T05:10:05.754Z,24.40
2023-03-07T05:12:35.417Z,21.80
2023-03-07T05:15:11.291Z,22.50
2023-03-07T05:17:43.898Z,21.50
2023-03-07T05:26:03.132Z,21.30
2023-03-07T05:29:05.339Z,18.70
2023-03-07T05:31:38.313Z,18.80
2023-03-07T05:34:16.649Z,20.40
2023-03-07T05:36:49.164Z,19.40
2023-03-07T05:39:31.445Z,19.50
2023-03-07T05:42:02.164Z,22.60
2023-03-07T05:44:34.016Z,23.30
2023-03-07T05:47:05.870Z,24.80
2023-03-07T05:49:37.382Z,26.40
2023-03-07T05:52:08.452Z,24.70
2023-03-07T05:54:38.419Z,26.60
2023-03-07T05:57:07.936Z,19.80
2023-03-07T05:59:38.550Z,23.90
2023-03-07T06:02:12.832Z,22.60
2023-03-07T06:04:48.595Z,20.80
2023-03-07T06:07:41.536Z,21.50
2023-03-07T06:10:16.075Z,19.00
2023-03-07T06:12:51.535Z,23.10
2023-03-07T06:15:32.763Z,19.70
2023-03-07T06:18:07.008Z,18.90
2023-03-07T06:20:36.428Z,21.50
2023-03-07T06:23:06.533Z,18.80
2023-03-07T06:25:37.439Z,19.40
2023-03-07T06:28:07.036Z,20.50
2023-03-07T06:30:36.931Z,22.50
2023-03-07T06:33:07.460Z,19.30
2023-03-07T06:35:43.616Z,18.60
2023-03-07T06:38:26.615Z,22.00
2023-03-07T06:41:01.068Z,21.80
2023-03-07T06:43:31.908Z,25.70
2023-03-07T06:46:06.542Z,24.30
2023-03-07T06:48:38.770Z,22.00
2023-03-07T06:53:44.684Z,24.20
2023-03-07T06:56:14.783Z,26.40
2023-03-07T06:58:44.241Z,28.50
2023-03-07T07:01:20.378Z,29.90
2023-03-07T07:04:01.348Z,30.70
2023-03-07T07:06:31.572Z,28.30
2023-03-07T07:09:01.382Z,32.10
2023-03-07T07:11:34.171Z,36.60
2023-03-07T07:14:05.070Z,33.80
2023-03-07T07:16:36.977Z,32.40
2023-03-07T07:19:10.445Z,29.20
2023-03-07T07:21:41.321Z,27.80
2023-03-07T07:24:13.097Z,34.90
2023-03-07T07:26:43.571Z,25.00
2023-03-07T07:29:12.699Z,29.10
2023-03-07T07:31:47.478Z,29.40
2023-03-07T07:34:20.773Z,26.10
2023-03-07T07:36:52.765Z,25.30
2023-03-07T07:39:24.753Z,21.80
2023-03-07T07:42:00.766Z,28.00
2023-03-07T07:44:32.856Z,27.30
2023-03-07T07:47:07.170Z,25.70
2023-03-07T07:49:36.330Z,23.80
2023-03-07T07:52:06.076Z,26.10
2023-03-07T07:54:36.140Z,24.90
2023-03-07T07:57:05.746Z,25.80
2023-03-07T07:59:36.734Z,25.00
2023-03-07T08:02:24.358Z,25.20
2023-03-07T08:08:02.885Z,30.70
2023-03-07T08:10:32.578Z,24.40
2023-03-07T08:13:02.058Z,22.80
2023-03-07T08:15:31.642Z,22.80
2023-03-07T08:18:08.612Z,21.40
2023-03-07T08:20:40.043Z,20.90
2023-03-07T08:23:18.854Z,13.70
2023-03-07T08:25:52.043Z,12.80
2023-03-07T08:28:22.860Z,11.90
2023-03-07T08:30:51.995Z,10.10
2023-03-07T08:33:23.029Z,11.30
2023-03-07T08:35:52.327Z,9.90
2023-03-07T08:38:21.977Z,9.10
2023-03-07T08:40:51.735Z,9.80
2023-03-07T08:43:22.724Z,10.80
2023-03-07T08:45:53.628Z,10.50
2023-03-07T08:48:27.798Z,10.60
2023-03-07T08:50:58.259Z,11.50
2023-03-07T08:53:27.466Z,12.10
2023-03-07T08:55:56.790Z,12.80
2023-03-07T08:58:27.287Z,9.70
2023-03-07T09:00:58.744Z,8.70
2023-03-07T09:03:28.183Z,9.60
2023-03-07T09:05:57.458Z,11.00
2023-03-07T09:08:27.854Z,9.30
2023-03-07T09:11:01.306Z,11.60
2023-03-07T09:13:33.064Z,9.90
2023-03-07T09:16:08.954Z,8.50
2023-03-07T09:18:38.205Z,9.20
2023-03-07T09:21:08.046Z,10.40
2023-03-07T09:23:37.826Z,9.20
2023-03-07T09:26:07.137Z,8.90
2023-03-07T09:28:38.232Z,8.80
2023-03-07T09:31:14.281Z,9.80
2023-03-07T09:33:46.653Z,10.40
2023-03-07T09:36:18.619Z,9.00
2023-03-07T09:38:48.674Z,8.50
2023-03-07T09:41:36.518Z,10.30
2023-03-07T09:44:35.149Z,11.60
2023-03-07T09:47:48.804Z,8.80
2023-03-07T09:50:30.129Z,9.30
2023-03-07T09:53:04.317Z,10.00
2023-03-07T09:55:33.689Z,9.70
2023-03-07T09:58:21.992Z,10.40
2023-03-07T10:00:57.742Z,9.80
2023-03-07T10:03:37.620Z,7.90
2023-03-07T10:06:34.328Z,8.90
2023-03-07T10:09:09.057Z,9.20
2023-03-07T10:12:02.756Z,7.80
2023-03-07T10:14:36.981Z,8.90
2023-03-07T10:17:35.824Z,8.40
2023-03-07T10:20:24.622Z,8.30
2023-03-07T10:23:17.950Z,9.50
2023-03-07T10:26:10.261Z,9.40
2023-03-07T10:28:42.837Z,9.20
2023-03-07T10:31:24.591Z,7.60
2023-03-07T10:33:56.233Z,9.60
2023-03-07T10:37:08.065Z,8.10
2023-03-07T10:40:04.760Z,8.00
2023-03-07T10:42:37.378Z,9.40
2023-03-07T10:47:37.804Z,6.60
2023-03-07T10:50:23.514Z,7.10
2023-03-07T10:52:56.286Z,7.10
2023-03-07T10:55:37.053Z,6.40
2023-03-07T10:58:26.861Z,11.20
2023-03-07T11:01:20.020Z,10.50
2023-03-07T11:04:28.690Z,9.30
2023-03-07T11:07:01.035Z,8.40
2023-03-07T11:09:36.148Z,8.00
2023-03-07T11:12:05.365Z,8.00
2023-03-07T11:14:53.481Z,8.40
2023-03-07T11:17:49.944Z,7.60
2023-03-07T11:20:42.356Z,11.10
2023-03-07T11:23:17.310Z,8.30
2023-03-07T11:25:47.230Z,10.00
2023-03-07T11:28:30.270Z,11.30
2023-03-07T11:31:29.779Z,9.80
2023-03-07T11:34:12.989Z,8.00
2023-03-07T11:36:50.773Z,8.30
2023-03-07T11:39:50.660Z,10.10
2023-03-07T11:42:39.520Z,7.60
2023-03-07T11:45:30.591Z,8.90
2023-03-07T11:48:29.953Z,10.40
2023-03-07T11:51:02.538Z,12.90
2023-03-07T11:53:57.756Z,6.40
2023-03-07T11:56:36.450Z,6.80
2023-03-07T11:59:43.173Z,7.80
2023-03-07T12:02:32.200Z,6.00
2023-03-07T12:05:14.364Z,5.20
2023-03-07T12:11:08.943Z,5.30
2023-03-07T12:14:09.556Z,3.80
2023-03-07T12:16:42.317Z,4.20
2023-03-07T12:19:37.762Z,3.90
2023-03-07T12:22:35.057Z,3.90
2023-03-07T12:25:08.391Z,3.10
2023-03-07T12:28:11.447Z,5.30
2023-03-07T12:30:57.135Z,4.00
2023-03-07T12:33:33.523Z,4.20
2023-03-07T12:36:10.378Z,3.90
2023-03-07T12:39:07.609Z,4.30
2023-03-07T12:42:20.978Z,5.80
2023-03-07T12:44:56.128Z,8.50
2023-03-07T12:47:49.828Z,10.90
2023-03-07T12:50:46.546Z,11.70
2023-03-07T12:54:05.169Z,8.20
2023-03-07T12:57:36.907Z,7.10
2023-03-07T13:00:21.103Z,7.30
2023-03-07T13:03:24.176Z,8.30
2023-03-07T13:05:57.831Z,8.20
2023-03-07T13:09:07.224Z,7.60
2023-03-07T13:12:08.583Z,8.30
2023-03-07T13:15:31.299Z,7.70
2023-03-07T13:18:06.257Z,12.20
2023-03-07T13:20:46.103Z,9.80
2023-03-07T13:23:25.843Z,14.50
2023-03-07T13:26:05.712Z,7.40
2023-03-07T13:28:47.513Z,8.80
2023-03-07T13:31:16.772Z,10.80
2023-03-07T13:33:48.395Z,7.70
2023-03-07T13:36:54.122Z,9.10
2023-03-07T13:49:00.347Z,14.10
2023-03-07T13:51:56.534Z,9.60
2023-03-07T13:54:46.791Z,10.00
2023-03-07T14:13:47.365Z,10.70
2023-03-07T14:15:58.370Z,13.50
2023-03-07T14:20:51.376Z,8.60
2023-03-07T14:23:54.099Z,11.00
2023-03-07T14:29:14.122Z,11.80
2023-03-07T14:31:50.737Z,11.60
2023-03-07T14:34:48.623Z,10.40
2023-03-07T14:37:42.376Z,9.20
2023-03-07T14:40:34.093Z,12.80
2023-03-07T14:43:44.816Z,13.30
2023-03-07T14:46:47.268Z,10.50
2023-03-07T14:49:58.797Z,9.70
2023-03-07T14:52:34.627Z,10.40
2023-03-07T14:55:19.644Z,11.40
2023-03-07T14:57:54.063Z,9.90
2023-03-07T15:00:32.999Z,10.70
2023-03-07T15:03:13.890Z,9.90
2023-03-07T15:05:58.331Z,8.70
2023-03-07T15:08:50.556Z,8.20
2023-03-07T15:11:48.267Z,10.10
2023-03-07T15:14:22.977Z,9.90
2023-03-07T15:16:55.947Z,9.30
2023-03-07T15:20:06.058Z,9.50
2023-03-07T15:25:40.031Z,10.50
2023-03-07T15:28:20.920Z,11.30
2023-03-07T15:30:56.088Z,11.10
2023-03-07T15:33:31.849Z,9.90
2023-03-07T15:36:20.055Z,10.90
2023-03-07T15:38:53.615Z,9.40
2023-03-07T15:41:38.381Z,12.50
2023-03-07T15:44:13.725Z,10.90
2023-03-07T15:46:51.621Z,11.50
2023-03-07T15:49:26.352Z,11.00
2023-03-07T15:51:59.951Z,11.10
2023-03-07T15:54:39.602Z,10.30
2023-03-07T16:00:43.001Z,12.10
2023-03-07T16:03:29.471Z,9.90
2023-03-07T16:06:01.471Z,11.80
2023-03-07T16:08:36.101Z,14.20
2023-03-07T16:11:15.770Z,14.20
2023-03-07T16:13:46.026Z,11.50
2023-03-07T16:16:24.756Z,12.70
2023-03-07T16:18:58.898Z,14.90
2023-03-07T16:21:28.176Z,11.90
2023-03-07T16:24:01.039Z,11.20
2023-03-07T16:26:34.822Z,11.40
2023-03-07T16:29:05.122Z,9.70
2023-03-07T16:31:34.536Z,14.00
2023-03-07T16:34:03.920Z,12.70
2023-03-07T16:36:33.695Z,9.80
2023-03-07T16:39:09.199Z,13.10
2023-03-07T16:41:49.314Z,12.60
2023-03-07T16:44:44.874Z,10.20
2023-03-07T16:47:23.423Z,15.90
2023-03-07T16:50:29.526Z,19.30
2023-03-07T16:52:59.135Z,19.40
2023-03-07T16:55:28.848Z,18.10
2023-03-07T16:58:03.746Z,17.20
2023-03-07T17:00:33.144Z,17.00
2023-03-07T17:03:04.215Z,16.40
2023-03-07T17:05:33.593Z,19.50
2023-03-07T17:08:03.281Z,16.80
2023-03-07T17:10:33.246Z,17.70
2023-03-07T17:13:08.196Z,15.30
2023-03-07T17:15:48.046Z,19.40
2023-03-07T17:19:07.599Z,18.00
2023-03-07T17:22:39.087Z,15.00
2023-03-07T17:25:12.113Z,15.90
2023-03-07T17:27:47.194Z,14.90
2023-03-07T17:30:48.149Z,12.80
2023-03-07T17:33:29.388Z,11.70
2023-03-07T17:36:10.059Z,12.80
2023-03-07T17:38:39.808Z,11.50
2023-03-07T17:41:17.323Z,15.80
2023-03-07T17:43:49.937Z,14.40
2023-03-07T17:46:29.628Z,15.70
2023-03-07T17:49:19.039Z,14.70
2023-03-07T17:52:18.151Z,15.60
2023-03-07T17:55:00.264Z,17.60
2023-03-07T17:57:45.704Z,16.30
2023-03-07T18:00:27.761Z,14.80
2023-03-07T18:03:13.189Z,13.70
2023-03-07T18:05:46.278Z,16.20
2023-03-07T18:08:31.773Z,14.40
2023-03-07T18:11:26.092Z,14.90
2023-03-07T18:14:02.898Z,14.10
2023-03-07T18:16:42.652Z,17.00
2023-03-07T18:19:25.660Z,18.00
2023-03-07T18:22:15.913Z,21.40
2023-03-07T18:24:50.187Z,20.00
2023-03-07T18:27:20.632Z,16.70
2023-03-07T18:29:51.299Z,19.30
2023-03-07T18:32:27.758Z,17.60
2023-03-07T18:34:59.256Z,17.00
2023-03-07T18:37:38.736Z,21.60
2023-03-07T18:40:10.147Z,22.70
2023-03-07T18:42:43.546Z,19.70
2023-03-07T18:45:17.612Z,23.00
2023-03-07T18:47:47.094Z,19.10
2023-03-07T18:50:17.695Z,17.90
2023-03-07T18:52:58.339Z,17.40
2023-03-07T18:55:42.696Z,16.30
2023-03-07T18:58:36.660Z,16.70
2023-03-07T19:01:14.173Z,18.10
2023-03-07T19:03:44.956Z,18.10
2023-03-07T19:06:15.880Z,17.30
2023-03-07T19:09:27.012Z,16.20
2023-03-07T19:11:56.375Z,16.40
2023-03-07T19:14:36.477Z,17.40
2023-03-07T19:17:09.136Z,17.30
2023-03-07T19:19:39.874Z,17.80
2023-03-07T19:22:11.579Z,20.00
2023-03-07T19:24:45.155Z,18.50
2023-03-07T19:27:14.551Z,17.90
2023-03-07T19:29:43.980Z,19.50
2023-03-07T19:32:14.593Z,21.20
2023-03-07T19:35:41.594Z,21.50
2023-03-07T19:45:07.607Z,18.50
2023-03-07T19:48:11.176Z,18.40
2023-03-07T19:51:02.702Z,19.80
2023-03-07T19:53:35.612Z,19.20
2023-03-07T19:56:35.826Z,20.70
2023-03-07T19:59:11.789Z,19.30
2023-03-07T20:01:41.531Z,20.60
2023-03-07T20:04:13.534Z,20.20
2023-03-07T20:06:44.755Z,21.10
2023-03-07T20:09:16.044Z,19.90
2023-03-07T20:11:47.536Z,21.20
2023-03-07T20:14:18.461Z,22.70
2023-03-07T20:16:47.696Z,23.30
2023-03-07T20:19:16.832Z,23.50
2023-03-07T20:21:53.104Z,25.00
2023-03-07T20:24:23.202Z,21.40
2023-03-07T20:26:57.675Z,21.00
2023-03-07T20:29:28.641Z,19.40
2023-03-07T20:32:05.661Z,20.50
2023-03-07T20:34:35.987Z,20.00
2023-03-07T20:37:06.816Z,19.20
2023-03-07T20:39:39.349Z,23.10
2023-03-07T20:42:10.372Z,21.20
2023-03-07T20:44:41.127Z,19.80
2023-03-07T20:47:10.890Z,20.50
2023-03-07T20:49:45.607Z,25.90
2023-03-07T20:52:16.820Z,26.50
2023-03-07T20:54:48.388Z,26.70
2023-03-07T20:57:19.834Z,24.00
2023-03-07T20:59:52.653Z,27.20
2023-03-07T21:02:24.990Z,27.20
2023-03-07T21:05:03.441Z,24.30
2023-03-07T21:07:34.420Z,26.70
2023-03-07T21:10:05.405Z,25.20
2023-03-07T21:12:36.405Z,31.30
2023-03-07T21:15:09.251Z,28.90
2023-03-07T21:17:39.449Z,27.90
2023-03-07T21:20:10.451Z,27.60
2023-03-07T21:22:40.980Z,32.30
2023-03-07T21:25:10.786Z,25.10
2023-03-07T21:27:40.368Z,25.90
2023-03-07T21:30:24.988Z,31.20
2023-03-07T21:32:57.673Z,28.90
2023-03-07T21:35:30.945Z,29.20
2023-03-07T21:38:11.128Z,30.60
2023-03-07T21:40:42.758Z,28.30
2023-03-07T21:43:18.092Z,26.00
2023-03-07T21:45:56.213Z,27.20
2023-03-07T21:48:37.807Z,31.80
2023-03-07T21:51:11.359Z,26.70
2023-03-07T21:53:43.954Z,27.80
2023-03-07T21:56:18.378Z,27.70
2023-03-07T21:58:52.205Z,27.40
2023-03-07T22:01:24.951Z,27.30
2023-03-07T22:03:56.771Z,25.40
2023-03-07T22:06:29.445Z,26.80
2023-03-07T22:09:12.694Z,26.40
2023-03-07T22:11:47.921Z,22.60
2023-03-07T22:14:20.706Z,24.50
2023-03-07T22:16:50.787Z,25.70
2023-03-07T22:19:20.950Z,24.70
2023-03-07T22:22:00.270Z,26.70
2023-03-07T22:24:40.935Z,28.80
2023-03-07T22:30:03.581Z,24.10
2023-03-07T22:32:32.966Z,28.60
2023-03-07T22:35:10.549Z,27.50
2023-03-07T22:37:42.202Z,27.60
2023-03-07T22:40:12.054Z,25.60
2023-03-07T22:42:42.234Z,28.00
2023-03-07T22:45:15.690Z,26.20
2023-03-07T22:47:45.562Z,26.60
2023-03-07T22:50:15.027Z,26.60
2023-03-07T22:53:15.464Z,26.10
2023-03-07T22:55:49.123Z,28.80
2023-03-07T22:58:18.482Z,23.70
2023-03-07T23:00:52.351Z,21.80
2023-03-07T23:03:25.809Z,26.70
2023-03-07T23:06:00.572Z,25.20
2023-03-07T23:08:30.327Z,26.10
2023-03-07T23:11:04.041Z,23.60
2023-03-07T23:13:39.300Z,25.80
2023-03-07T23:16:16.002Z,27.20
2023-03-07T23:18:47.102Z,24.90
2023-03-07T23:21:22.854Z,25.20
2023-03-07T23:23:55.209Z,25.30
2023-03-07T23:28:58.674Z,22.40
2023-03-07T23:31:37.019Z,25.20
2023-03-07T23:34:16.956Z,23.50
2023-03-07T23:36:53.662Z,22.60
2023-03-07T23:39:22.919Z,25.20
2023-03-07T23:41:56.278Z,22.60
2023-03-07T23:44:26.310Z,21.50
2023-03-07T23:46:56.842Z,27.60
2023-03-07T23:49:27.121Z,20.90
2023-03-07T23:51:56.983Z,25.70
2023-03-07T23:54:29.543Z,22.10
2023-03-07T23:56:58.723Z,26.40
2023-03-07T23:59:28.135Z,25.80
